Time;durP1;ratioP1;P1;durP2;ratioP2;P2;SDS_P1;SDS_P2;PMS_P1;PMS_P2;Temp;Humidity;BMP_temperature;BMP_pressure;BME280_temperature;BME280_humidity;BME280_pressure;Samples;Min_cycle;Max_cycle;Signal;HPM_P1;HPM_P2
2022/07/12 00:01:07;;;;;;;4.15;3.75;;;13.90;99.90;;;;;;5011341;28;20041;-73
2022/07/12 00:03:34;;;;;;;5.35;4.85;;;13.80;99.90;;;;;;5009508;28;20042;-73
2022/07/12 00:06:00;;;;;;;5.43;4.53;;;13.90;99.90;;;;;;5027972;28;20064;-72
2022/07/12 00:08:25;;;;;;;4.53;4.13;;;13.80;99.90;;;;;;5009512;28;20117;-72
2022/07/12 00:10:51;;;;;;;4.07;3.67;;;13.80;99.90;;;;;;5012501;28;20053;-73
2022/07/12 00:13:17;;;;;;;5.10;3.95;;;13.80;99.90;;;;;;5008334;28;20089;-72
2022/07/12 00:15:43;;;;;;;5.63;4.38;;;13.80;99.90;;;;;;5009303;28;20046;-72
2022/07/12 00:18:10;;;;;;;4.47;4.07;;;13.70;99.90;;;;;;5042851;28;20045;-73
2022/07/12 00:20:36;;;;;;;4.88;4.03;;;13.70;99.90;;;;;;5011782;28;20030;-72
2022/07/12 00:23:02;;;;;;;5.15;3.90;;;13.60;99.90;;;;;;5040797;28;20038;-72
2022/07/12 00:25:28;;;;;;;4.97;3.83;;;13.60;99.90;;;;;;5011709;28;20033;-73
2022/07/12 00:27:54;;;;;;;4.90;4.43;;;13.60;99.90;;;;;;5008249;28;20038;-73
2022/07/12 00:30:20;;;;;;;6.13;4.22;;;13.60;99.90;;;;;;5011768;28;20136;-73
2022/07/12 00:32:47;;;;;;;3.97;3.53;;;13.60;99.90;;;;;;5011147;28;20049;-73
2022/07/12 00:35:13;;;;;;;4.45;3.97;;;13.60;99.90;;;;;;5011440;28;20121;-71
2022/07/12 00:37:40;;;;;;;5.05;4.25;;;13.50;99.90;;;;;;5037929;28;20085;-73
2022/07/12 00:40:10;;;;;;;4.13;3.58;;;13.50;99.90;;;;;;5011479;28;20034;-73
2022/07/12 00:42:38;;;;;;;6.07;4.32;;;13.50;99.90;;;;;;5038619;28;20034;-72
2022/07/12 00:45:06;;;;;;;5.55;4.18;;;13.40;99.90;;;;;;5010093;28;20044;-72
2022/07/12 00:47:42;;;;;;;4.22;3.38;;;13.40;99.90;;;;;;5009344;28;20517;-72
2022/07/12 00:50:09;;;;;;;3.72;3.20;;;13.30;99.90;;;;;;4994308;28;20045;-72
2022/07/12 00:52:36;;;;;;;4.60;3.92;;;13.30;99.90;;;;;;4993752;28;20103;-73
2022/07/12 00:55:03;;;;;;;7.28;3.38;;;13.30;99.90;;;;;;5008692;28;20586;-74
2022/07/12 00:57:30;;;;;;;3.00;2.70;;;13.30;99.90;;;;;;5009059;28;20069;-74
2022/07/12 00:59:56;;;;;;;3.45;2.80;;;13.30;99.90;;;;;;4994450;28;20061;-72
2022/07/12 01:02:22;;;;;;;9.65;3.30;;;13.20;99.90;;;;;;5027117;28;20045;-72
2022/07/12 01:04:48;;;;;;;4.88;3.22;;;13.20;99.90;;;;;;5009909;28;20049;-74
2022/07/12 01:07:15;;;;;;;2.67;2.13;;;13.20;99.90;;;;;;5043037;28;20144;-71
2022/07/12 01:09:41;;;;;;;3.05;2.63;;;13.20;99.90;;;;;;4994171;28;20056;-72
2022/07/12 01:12:07;;;;;;;2.97;2.60;;;13.20;99.90;;;;;;5022882;28;20597;-72
2022/07/12 01:14:34;;;;;;;2.30;2.10;;;13.20;99.90;;;;;;5009436;28;20045;-73
2022/07/12 01:17:00;;;;;;;1.80;1.70;;;13.10;99.90;;;;;;5009419;28;20037;-72
2022/07/12 01:19:26;;;;;;;2.30;2.10;;;13.10;99.90;;;;;;5027092;28;20469;-72
2022/07/12 01:21:55;;;;;;;3.30;1.85;;;13.10;99.90;;;;;;5042151;28;20409;-72
2022/07/12 01:24:21;;;;;;;1.70;1.60;;;13.00;99.90;;;;;;5009004;28;20034;-72
2022/07/12 01:26:49;;;;;;;1.85;1.50;;;13.00;99.90;;;;;;5006921;28;20042;-71
2022/07/12 01:29:14;;;;;;;2.08;1.88;;;13.00;99.90;;;;;;5042763;28;20129;-72
2022/07/12 01:31:40;;;;;;;1.75;1.60;;;13.00;99.90;;;;;;5026283;28;20172;-72
2022/07/12 01:34:07;;;;;;;2.20;1.75;;;12.90;99.90;;;;;;5009020;28;20462;-71
2022/07/12 01:36:33;;;;;;;3.78;1.83;;;12.90;99.90;;;;;;5043253;28;20042;-72
2022/07/12 01:38:59;;;;;;;3.92;1.42;;;12.90;99.90;;;;;;5005844;28;20056;-72
2022/07/12 01:41:25;;;;;;;2.42;1.45;;;12.90;99.90;;;;;;5039684;28;20046;-72
2022/07/12 01:43:52;;;;;;;2.28;1.80;;;12.80;99.90;;;;;;5008836;28;20033;-72
2022/07/12 01:46:18;;;;;;;2.33;1.70;;;12.80;99.90;;;;;;5007889;28;20041;-71
2022/07/12 01:48:44;;;;;;;2.08;1.67;;;12.80;99.90;;;;;;5042343;28;20037;-71
2022/07/12 01:51:10;;;;;;;2.22;1.92;;;12.80;99.90;;;;;;5007482;28;20046;-71
2022/07/12 01:53:36;;;;;;;2.17;1.95;;;12.80;99.90;;;;;;5041876;28;20164;-71
2022/07/12 01:56:03;;;;;;;3.33;2.20;;;12.80;99.90;;;;;;5040543;28;20048;-71
2022/07/12 01:58:30;;;;;;;3.03;1.98;;;12.70;99.90;;;;;;4992025;28;20526;-72
2022/07/12 02:00:57;;;;;;;2.28;1.40;;;12.70;99.90;;;;;;5010206;28;20370;-72
2022/07/12 02:03:23;;;;;;;3.03;2.10;;;12.70;99.90;;;;;;5004855;28;20037;-72
2022/07/12 02:05:48;;;;;;;1.92;1.50;;;12.60;99.90;;;;;;4992208;28;20092;-72
2022/07/12 02:08:14;;;;;;;2.33;2.10;;;12.60;99.90;;;;;;5006480;28;20042;-72
2022/07/12 02:10:41;;;;;;;2.08;1.88;;;12.60;99.90;;;;;;5010182;28;20034;-72
2022/07/12 02:13:07;;;;;;;2.00;1.80;;;12.60;99.90;;;;;;5038358;28;20045;-72
2022/07/12 02:15:33;;;;;;;2.53;1.98;;;12.50;99.90;;;;;;5008949;28;20048;-72
2022/07/12 02:17:59;;;;;;;2.03;1.63;;;12.50;99.90;;;;;;4992869;28;20494;-72
2022/07/12 02:20:24;;;;;;;2.15;1.50;;;12.40;99.90;;;;;;5010007;28;20033;-72
2022/07/12 02:22:50;;;;;;;1.90;1.50;;;12.40;99.90;;;;;;5008077;28;20030;-72
2022/07/12 02:25:16;;;;;;;3.10;1.45;;;12.40;99.90;;;;;;5025399;28;20041;-72
2022/07/12 02:27:43;;;;;;;2.85;1.70;;;12.40;99.90;;;;;;5006892;28;20528;-72
2022/07/12 02:30:10;;;;;;;3.15;1.75;;;12.40;99.90;;;;;;5025840;28;20100;-72
2022/07/12 02:32:37;;;;;;;3.35;1.95;;;12.30;99.90;;;;;;5008766;28;20384;-72
2022/07/12 02:35:04;;;;;;;2.28;1.75;;;12.30;99.90;;;;;;5009241;28;20565;-72
2022/07/12 02:37:29;;;;;;;1.75;1.58;;;12.30;99.90;;;;;;5007895;28;20165;-72
2022/07/12 02:40:52;;;;;;;4.85;1.70;;;12.20;99.90;;;;;;5010556;28;20539;-72
2022/07/12 02:42:41;;;;;;;2.53;1.88;;;12.20;99.90;;;;;;5009504;28;20560;-71
2022/07/12 02:45:07;;;;;;;3.33;1.80;;;12.20;99.90;;;;;;5012921;28;20435;-71
2022/07/12 02:47:35;;;;;;;2.22;1.42;;;12.10;99.90;;;;;;4995777;28;20137;-71
2022/07/12 02:50:01;;;;;;;1.40;1.30;;;12.20;99.90;;;;;;5029826;28;20062;-71
2022/07/12 02:52:27;;;;;;;4.20;1.63;;;12.10;99.90;;;;;;5012398;28;20049;-71
2022/07/12 02:54:52;;;;;;;7.40;1.95;;;12.10;99.90;;;;;;5011184;28;20488;-71
2022/07/12 02:57:18;;;;;;;3.28;2.17;;;12.10;99.90;;;;;;5043763;28;20104;-71
2022/07/12 02:59:44;;;;;;;2.40;1.88;;;12.10;99.90;;;;;;5012781;28;20042;-71
2022/07/12 03:02:10;;;;;;;3.83;1.65;;;12.10;99.90;;;;;;5045575;28;20065;-72
2022/07/12 03:04:35;;;;;;;15.35;2.55;;;12.00;99.90;;;;;;5012456;28;20038;-72
2022/07/12 03:07:01;;;;;;;9.90;2.35;;;12.00;99.90;;;;;;5007874;28;20058;-72
2022/07/12 03:09:26;;;;;;;28.95;2.80;;;12.00;99.90;;;;;;5013008;28;20049;-72
2022/07/12 03:11:52;;;;;;;12.73;2.30;;;12.00;99.90;;;;;;4994749;28;20061;-72
2022/07/12 03:14:18;;;;;;;18.08;2.60;;;11.90;99.90;;;;;;5008670;28;20382;-72
2022/07/12 03:16:44;;;;;;;5.80;2.47;;;11.90;99.90;;;;;;5012823;28;20135;-72
2022/07/12 03:19:09;;;;;;;3.78;2.13;;;11.90;99.90;;;;;;5038166;28;20076;-72
2022/07/12 03:21:35;;;;;;;3.35;2.05;;;11.80;99.90;;;;;;5027478;28;20432;-73
2022/07/12 03:24:00;;;;;;;3.58;1.85;;;11.90;99.90;;;;;;5010900;28;20092;-72
2022/07/12 03:26:26;;;;;;;2.65;2.17;;;11.80;99.90;;;;;;5009287;28;20120;-72
2022/07/12 03:28:52;;;;;;;3.28;1.95;;;11.80;99.90;;;;;;5009741;28;20123;-72
2022/07/12 03:31:18;;;;;;;2.40;2.15;;;11.80;99.90;;;;;;5012307;28;20074;-72
2022/07/12 03:33:43;;;;;;;2.50;2.22;;;11.80;99.90;;;;;;5040764;28;20623;-72
2022/07/12 03:36:09;;;;;;;2.25;1.98;;;11.90;99.90;;;;;;5026978;28;20060;-72
2022/07/12 03:38:36;;;;;;;4.30;2.63;;;11.90;99.90;;;;;;5009412;28;20050;-72
2022/07/12 03:41:02;;;;;;;13.18;4.07;;;11.90;99.90;;;;;;5044807;28;20042;-72
2022/07/12 03:43:28;;;;;;;7.20;3.17;;;11.80;99.90;;;;;;5010135;28;20046;-72
2022/07/12 03:45:54;;;;;;;19.60;3.30;;;11.80;99.90;;;;;;5010920;28;20046;-71
2022/07/12 03:48:19;;;;;;;33.70;3.40;;;11.80;99.90;;;;;;5009480;28;20169;-71
2022/07/12 03:50:49;;;;;;;20.08;3.65;;;11.80;99.90;;;;;;5011803;28;20046;-71
2022/07/12 03:53:14;;;;;;;15.02;3.15;;;11.80;99.90;;;;;;5010035;28;20519;-71
2022/07/12 03:55:40;;;;;;;7.43;3.15;;;11.80;99.90;;;;;;5009477;28;20049;-71
2022/07/12 03:58:06;;;;;;;14.70;2.58;;;11.80;99.90;;;;;;5008550;28;20125;-71
2022/07/12 04:00:32;;;;;;;7.90;2.35;;;11.80;99.90;;;;;;5010774;28;20056;-71
2022/07/12 04:02:57;;;;;;;3.70;2.67;;;11.80;99.90;;;;;;5009406;28;20145;-71
2022/07/12 04:05:26;;;;;;;7.53;2.10;;;11.80;99.90;;;;;;5012117;28;20041;-71
2022/07/12 04:07:53;;;;;;;9.10;1.75;;;11.80;99.90;;;;;;5011614;28;20100;-71
2022/07/12 04:10:20;;;;;;;7.85;1.40;;;11.80;99.90;;;;;;5010435;28;20053;-72
2022/07/12 04:12:46;;;;;;;5.03;1.08;;;11.80;99.90;;;;;;5041015;28;20551;-72
2022/07/12 04:15:12;;;;;;;2.08;1.25;;;11.80;99.90;;;;;;4994029;28;20120;-71
2022/07/12 04:17:38;;;;;;;2.40;1.25;;;11.90;99.90;;;;;;5026958;28;20136;-71
2022/07/12 04:20:06;;;;;;;6.80;1.30;;;11.90;99.90;;;;;;5010498;28;20100;-72
2022/07/12 04:22:31;;;;;;;3.35;1.30;;;11.90;99.90;;;;;;5006665;28;20034;-71
2022/07/12 04:24:57;;;;;;;1.45;0.90;;;11.90;99.90;;;;;;5011818;28;20088;-71
2022/07/12 04:27:23;;;;;;;1.98;1.25;;;11.90;99.90;;;;;;5009772;28;20048;-71
2022/07/12 04:29:49;;;;;;;1.50;1.23;;;11.90;99.90;;;;;;5007908;28;20113;-71
2022/07/12 04:32:14;;;;;;;2.08;1.20;;;12.00;99.90;;;;;;4989404;28;20050;-71
2022/07/12 04:34:40;;;;;;;1.92;1.13;;;12.10;99.90;;;;;;5024817;28;20042;-71
2022/07/12 04:37:06;;;;;;;2.42;1.40;;;12.10;99.90;;;;;;5008169;28;20694;-71
2022/07/12 04:39:31;;;;;;;2.45;1.30;;;12.20;99.90;;;;;;5010163;28;20037;-71
2022/07/12 04:41:57;;;;;;;2.33;1.63;;;12.20;99.90;;;;;;5008576;28;20044;-71
2022/07/12 04:44:23;;;;;;;6.28;2.13;;;12.30;99.90;;;;;;5040178;28;20042;-72
2022/07/12 04:46:49;;;;;;;3.08;2.00;;;12.30;99.90;;;;;;5009092;28;20046;-72
2022/07/12 04:49:15;;;;;;;4.88;4.15;;;12.40;99.90;;;;;;4994372;28;20053;-72
2022/07/12 04:51:40;;;;;;;3.72;2.33;;;12.40;99.90;;;;;;5008838;28;20060;-72
2022/07/12 04:54:06;;;;;;;4.30;2.78;;;12.50;99.90;;;;;;5010606;28;20119;-72
2022/07/12 04:56:32;;;;;;;4.10;2.35;;;12.70;99.90;;;;;;5024657;28;20050;-70
2022/07/12 04:58:57;;;;;;;3.53;2.28;;;12.80;99.90;;;;;;5041251;28;20101;-70
2022/07/12 05:01:23;;;;;;;5.05;3.10;;;13.00;99.90;;;;;;5024435;28;20049;-71
2022/07/12 05:03:49;;;;;;;4.00;2.67;;;13.20;99.90;;;;;;5042783;28;20033;-70
2022/07/12 05:06:14;;;;;;;4.00;2.65;;;13.40;99.90;;;;;;5010171;28;20092;-71
2022/07/12 05:08:40;;;;;;;3.08;2.40;;;13.70;99.90;;;;;;5010640;28;20100;-71
2022/07/12 05:11:06;;;;;;;2.83;2.38;;;14.10;99.90;;;;;;5041335;28;20034;-72
2022/07/12 05:13:31;;;;;;;5.20;2.80;;;14.40;99.90;;;;;;5026015;28;20046;-73
2022/07/12 05:15:57;;;;;;;2.72;2.35;;;14.50;99.90;;;;;;5010208;28;20121;-73
2022/07/12 05:18:23;;;;;;;2.70;2.22;;;14.50;99.90;;;;;;5008898;28;20042;-73
2022/07/12 05:20:49;;;;;;;3.75;2.92;;;14.60;99.90;;;;;;5010592;28;20056;-73
2022/07/12 05:23:14;;;;;;;4.93;3.53;;;14.70;99.90;;;;;;5024370;28;20070;-73
2022/07/12 05:25:40;;;;;;;4.47;3.03;;;14.90;99.90;;;;;;5024535;28;20084;-73
2022/07/12 05:28:05;;;;;;;4.50;3.17;;;14.90;99.90;;;;;;5008662;28;20042;-73
2022/07/12 05:30:31;;;;;;;3.42;2.63;;;15.10;99.90;;;;;;5009937;28;20052;-73
2022/07/12 05:32:57;;;;;;;2.95;2.65;;;15.30;99.90;;;;;;5009521;28;20037;-73
2022/07/12 05:35:23;;;;;;;5.13;3.25;;;15.50;99.90;;;;;;5006893;28;20049;-73
2022/07/12 05:37:48;;;;;;;3.78;2.35;;;15.70;99.90;;;;;;5040880;28;20042;-73
2022/07/12 05:40:14;;;;;;;4.47;3.28;;;15.90;99.90;;;;;;5024739;28;20048;-73
2022/07/12 05:42:40;;;;;;;3.83;2.47;;;16.10;99.90;;;;;;5007546;28;20494;-72
2022/07/12 05:45:06;;;;;;;3.25;2.83;;;16.30;99.90;;;;;;5024991;28;20118;-73
2022/07/12 05:47:32;;;;;;;3.25;2.92;;;16.50;99.90;;;;;;5022925;28;20089;-73
2022/07/12 05:49:58;;;;;;;6.35;5.32;;;16.70;99.90;;;;;;5040833;28;20530;-73
2022/07/12 05:55:07;;;;;;;3.63;3.33;;;17.10;99.90;;;;;;5008201;28;20172;-73
2022/07/12 05:57:33;;;;;;;3.40;3.10;;;17.30;99.90;;;;;;5038431;28;20073;-73
2022/07/12 05:59:59;;;;;;;5.55;4.25;;;17.50;99.90;;;;;;5039614;28;20096;-73
2022/07/12 06:02:24;;;;;;;4.78;3.95;;;17.60;99.90;;;;;;4992148;28;20133;-73
2022/07/12 06:04:50;;;;;;;4.38;3.78;;;17.60;99.90;;;;;;5023390;28;20130;-73
2022/07/12 06:07:16;;;;;;;4.63;4.18;;;17.60;99.90;;;;;;5022454;28;20132;-73
2022/07/12 06:09:42;;;;;;;4.40;4.00;;;17.60;99.90;;;;;;4990821;28;20056;-73
2022/07/12 06:12:08;;;;;;;4.20;3.80;;;17.60;99.90;;;;;;4981544;28;20801;-73
2022/07/12 06:14:34;;;;;;;4.82;4.32;;;17.60;99.90;;;;;;5040420;28;20092;-73
2022/07/12 06:16:59;;;;;;;5.07;4.22;;;17.70;99.90;;;;;;5023312;28;20100;-73
2022/07/12 06:19:26;;;;;;;4.95;4.30;;;17.80;99.90;;;;;;5040274;28;20103;-73
2022/07/12 06:21:52;;;;;;;6.15;4.30;;;17.80;99.90;;;;;;5007980;28;20049;-73
2022/07/12 06:24:18;;;;;;;5.10;4.60;;;17.90;99.90;;;;;;5039606;28;20044;-72
2022/07/12 06:26:43;;;;;;;4.82;4.32;;;18.00;99.90;;;;;;5008998;28;20104;-72
2022/07/12 06:29:09;;;;;;;6.10;5.25;;;18.00;99.90;;;;;;5006709;28;20152;-73
2022/07/12 06:31:35;;;;;;;4.63;3.85;;;18.10;99.90;;;;;;5025072;28;20081;-73
2022/07/12 06:34:00;;;;;;;5.38;4.88;;;18.10;99.90;;;;;;5009281;28;20042;-73
2022/07/12 06:36:26;;;;;;;6.60;4.20;;;18.10;99.90;;;;;;5006965;28;20066;-73
2022/07/12 06:38:52;;;;;;;5.35;4.35;;;18.00;99.90;;;;;;5039745;28;20525;-72
2022/07/12 06:41:17;;;;;;;4.78;4.38;;;18.20;99.90;;;;;;4992721;28;20508;-73
2022/07/12 06:43:43;;;;;;;7.72;3.90;;;18.20;99.90;;;;;;5007885;28;20058;-73
2022/07/12 06:46:08;;;;;;;5.43;4.93;;;18.40;99.90;;;;;;5008427;28;20042;-73
2022/07/12 06:48:34;;;;;;;5.82;4.18;;;18.50;99.90;;;;;;4991768;28;20149;-73
2022/07/12 06:51:00;;;;;;;4.45;3.97;;;18.60;99.90;;;;;;5009227;28;20155;-73
2022/07/12 06:53:26;;;;;;;4.85;4.35;;;18.70;99.90;;;;;;5008546;28;20058;-73
2022/07/12 06:55:52;;;;;;;4.13;3.75;;;18.90;99.90;;;;;;5009396;28;20396;-73
2022/07/12 06:58:17;;;;;;;4.88;3.80;;;18.90;99.90;;;;;;5008143;28;20053;-73
2022/07/12 07:00:43;;;;;;;3.90;3.50;;;19.00;99.90;;;;;;4992272;28;20147;-73
2022/07/12 07:03:09;;;;;;;4.20;3.80;;;19.10;99.90;;;;;;5039771;28;20050;-73
2022/07/12 07:05:38;;;;;;;3.80;3.38;;;19.20;99.90;;;;;;5025253;28;20060;-73
2022/07/12 07:08:04;;;;;;;4.35;3.88;;;19.20;99.90;;;;;;5008010;28;20054;-73
2022/07/12 07:10:29;;;;;;;5.55;3.55;;;19.40;99.90;;;;;;5007909;28;20108;-74
2022/07/12 07:12:55;;;;;;;3.95;3.35;;;19.50;99.90;;;;;;4989575;28;20064;-74
2022/07/12 07:15:21;;;;;;;4.95;3.90;;;19.60;99.90;;;;;;5025408;28;20457;-74
2022/07/12 07:17:47;;;;;;;4.00;3.70;;;19.70;99.90;;;;;;5006942;28;20137;-74
2022/07/12 07:20:12;;;;;;;5.18;3.28;;;19.90;99.90;;;;;;5008383;28;20131;-74
2022/07/12 07:22:39;;;;;;;3.85;3.45;;;20.10;99.90;;;;;;5007626;28;20062;-74
2022/07/12 07:25:06;;;;;;;4.07;3.13;;;20.30;99.90;;;;;;5010339;28;20700;-74
2022/07/12 07:27:32;;;;;;;5.30;3.40;;;20.60;99.90;;;;;;5010995;28;20054;-74
2022/07/12 07:32:42;;;;;;;3.58;3.28;;;20.90;99.90;;;;;;5044331;28;20041;-74
2022/07/12 07:35:08;;;;;;;2.78;2.58;;;21.10;99.90;;;;;;5027196;28;20061;-75
2022/07/12 07:37:34;;;;;;;2.80;2.10;;;21.30;99.90;;;;;;5012172;28;20050;-75
2022/07/12 07:40:00;;;;;;;3.65;2.42;;;21.50;99.90;;;;;;5023541;28;20129;-75
2022/07/12 07:42:26;;;;;;;3.17;2.65;;;21.60;99.90;;;;;;5007995;28;20068;-75
2022/07/12 07:44:51;;;;;;;3.80;2.70;;;21.70;99.90;;;;;;4995546;28;20050;-75
2022/07/12 07:47:17;;;;;;;3.53;2.58;;;21.70;99.90;;;;;;5010632;28;20057;-75
2022/07/12 07:49:43;;;;;;;2.78;2.50;;;21.70;99.90;;;;;;5027647;28;20043;-75
2022/07/12 07:52:08;;;;;;;2.50;2.30;;;21.80;99.90;;;;;;5011152;28;20527;-75
2022/07/12 07:54:34;;;;;;;2.50;2.30;;;21.90;99.90;;;;;;5011069;28;20561;-75
2022/07/12 07:57:00;;;;;;;3.05;2.25;;;22.10;99.90;;;;;;5026848;28;20413;-75
2022/07/12 07:59:25;;;;;;;2.83;2.63;;;22.20;99.90;;;;;;5025394;28;20058;-75
2022/07/12 08:01:54;;;;;;;3.83;3.20;;;22.40;99.90;;;;;;5011323;28;20084;-75
2022/07/12 08:04:21;;;;;;;4.28;3.33;;;22.50;99.90;;;;;;5042108;28;20058;-75
2022/07/12 08:06:48;;;;;;;2.78;2.58;;;22.80;99.90;;;;;;5027932;28;20111;-75
2022/07/12 08:09:14;;;;;;;3.35;2.00;;;23.00;99.90;;;;;;5025833;28;20089;-75
2022/07/12 08:11:40;;;;;;;2.92;2.63;;;23.50;99.90;;;;;;5024524;28;20111;-75
2022/07/12 08:14:07;;;;;;;3.20;2.90;;;24.00;99.90;;;;;;4989318;28;20800;-76
2022/07/12 08:16:34;;;;;;;4.55;2.95;;;24.30;99.90;;;;;;5011810;28;20069;-76
2022/07/12 08:18:59;;;;;;;2.60;2.40;;;24.30;99.90;;;;;;5010997;28;20107;-76
2022/07/12 08:21:26;;;;;;;4.25;2.35;;;24.30;99.90;;;;;;4994413;28;20038;-76
2022/07/12 08:23:52;;;;;;;3.40;2.15;;;24.40;99.90;;;;;;5011101;28;20096;-76
2022/07/12 08:26:19;;;;;;;2.13;1.48;;;24.60;99.90;;;;;;5010195;28;20038;-76
2022/07/12 08:28:45;;;;;;;2.67;2.00;;;24.80;99.90;;;;;;5041534;28;20178;-76
2022/07/12 08:31:13;;;;;;;2.75;1.58;;;24.80;99.90;;;;;;5010030;28;20169;-76
2022/07/12 08:33:39;;;;;;;2.33;1.52;;;24.90;99.90;;;;;;5011006;28;20077;-76
2022/07/12 08:36:05;;;;;;;4.00;2.65;;;25.10;99.90;;;;;;4993127;28;20727;-76
2022/07/12 08:38:31;;;;;;;2.40;2.20;;;25.20;99.90;;;;;;5008263;28;20115;-76
2022/07/12 08:40:57;;;;;;;2.60;1.40;;;25.40;99.90;;;;;;5010920;28;20046;-76
2022/07/12 08:43:23;;;;;;;1.98;1.33;;;25.60;99.90;;;;;;5010034;28;20060;-76
2022/07/12 08:45:49;;;;;;;1.67;1.05;;;25.70;99.90;;;;;;5011021;28;20048;-76
2022/07/12 08:48:15;;;;;;;3.63;1.30;;;25.90;99.90;;;;;;5010787;28;20069;-76
2022/07/12 08:50:41;;;;;;;2.67;1.60;;;25.90;99.90;;;;;;5042354;28;20481;-77
2022/07/12 08:53:11;;;;;;;3.08;1.38;;;25.90;99.90;;;;;;4993827;28;20123;-77
2022/07/12 08:55:37;;;;;;;2.72;1.58;;;25.90;99.90;;;;;;5041082;28;20183;-77
2022/07/12 08:58:13;;;;;;;1.83;1.17;;;26.00;99.90;;;;;;5006531;28;20775;-77
2022/07/12 09:00:40;;;;;;;1.98;1.20;;;26.40;99.90;;;;;;4992784;28;20065;-77
2022/07/12 09:03:07;;;;;;;2.83;1.50;;;26.80;99.90;;;;;;5043154;28;20581;-77
2022/07/12 09:05:34;;;;;;;1.65;1.05;;;27.10;99.40;;;;;;4994491;28;20482;-77
2022/07/12 09:08:05;;;;;;;1.75;1.65;;;27.30;99.30;;;;;;5027295;28;20046;-77
2022/07/12 09:10:31;;;;;;;1.67;1.05;;;27.40;97.20;;;;;;5010690;28;20490;-77
2022/07/12 09:12:57;;;;;;;2.72;1.38;;;27.50;96.90;;;;;;5009207;28;20413;-77
2022/07/12 09:15:24;;;;;;;2.28;1.35;;;27.70;96.10;;;;;;5011058;28;20112;-77
2022/07/12 09:18:00;;;;;;;1.48;1.38;;;28.00;95.10;;;;;;4993240;28;20053;-77
2022/07/12 09:20:36;;;;;;;1.90;1.30;;;28.10;93.00;;;;;;4994621;28;20065;-77
2022/07/12 09:23:07;;;;;;;1.58;1.20;;;28.10;92.00;;;;;;5025333;28;20049;-77
2022/07/12 09:25:34;;;;;;;1.80;1.27;;;28.10;91.60;;;;;;4994662;28;20133;-77
2022/07/12 09:28:03;;;;;;;1.30;1.17;;;28.10;91.60;;;;;;5009347;28;20151;-77
2022/07/12 09:30:30;;;;;;;2.55;1.40;;;28.10;91.40;;;;;;5025911;28;20362;-77
2022/07/12 09:36:06;;;;;;;2.03;1.00;;;27.80;87.40;;;;;;5010320;28;20121;-77
2022/07/12 09:38:39;;;;;;;2.63;1.30;;;27.60;87.50;;;;;;4993067;28;20050;-77
2022/07/12 09:41:07;;;;;;;1.17;1.00;;;27.50;88.80;;;;;;5010776;28;20046;-77
2022/07/12 09:43:33;;;;;;;1.40;0.95;;;27.50;90.30;;;;;;5006714;28;20129;-77
2022/07/12 09:46:00;;;;;;;1.50;0.90;;;27.60;91.20;;;;;;5010738;28;20042;-77
2022/07/12 09:48:30;;;;;;;2.80;1.17;;;27.70;90.10;;;;;;5009947;28;20058;-77
2022/07/12 09:50:57;;;;;;;1.38;0.80;;;27.70;88.60;;;;;;4994677;28;20118;-77
2022/07/12 09:53:29;;;;;;;0.73;0.50;;;27.70;87.00;;;;;;5009569;28;20069;-77
2022/07/12 09:55:55;;;;;;;2.53;1.30;;;27.70;89.70;;;;;;5008723;28;20045;-77
2022/07/12 09:58:27;;;;;;;3.47;1.00;;;27.80;87.20;;;;;;5007256;28;20124;-77
2022/07/12 10:00:53;;;;;;;1.45;1.30;;;28.00;86.70;;;;;;5026071;28;20099;-76
2022/07/12 10:03:22;;;;;;;1.25;0.88;;;28.20;87.70;;;;;;5008369;28;20628;-76
2022/07/12 10:05:50;;;;;;;1.25;0.95;;;28.50;88.30;;;;;;5008675;28;20057;-76
2022/07/12 10:08:18;;;;;;;1.45;0.82;;;28.60;86.20;;;;;;5032433;28;20055;-76
2022/07/12 10:10:45;;;;;;;1.45;1.20;;;28.70;84.00;;;;;;5009956;28;20509;-76
2022/07/12 10:13:11;;;;;;;5.25;4.75;;;28.60;82.30;;;;;;5025093;28;20073;-76
2022/07/12 10:15:38;;;;;;;2.08;1.17;;;28.70;83.40;;;;;;5007559;28;20085;-76
2022/07/12 10:18:05;;;;;;;1.15;0.95;;;28.90;82.60;;;;;;5009072;28;20251;-76
2022/07/12 10:20:31;;;;;;;2.60;1.05;;;29.20;82.80;;;;;;5038216;28;20514;-77
2022/07/12 10:23:17;;;;;;;1.02;0.70;;;29.40;76.90;;;;;;5006335;28;20110;-77
2022/07/12 10:25:43;;;;;;;0.95;0.45;;;29.20;78.20;;;;;;5001978;28;20049;-76
2022/07/12 10:28:08;;;;;;;0.75;0.35;;;29.10;78.80;;;;;;5023224;28;20061;-77
2022/07/12 10:30:43;;;;;;;0.85;0.40;;;29.20;79.80;;;;;;5024844;28;20390;-76
2022/07/12 10:33:17;;;;;;;2.20;0.43;;;29.50;77.10;;;;;;5007878;28;20378;-76
2022/07/12 10:36:06;;;;;;;0.70;0.40;;;29.70;78.00;;;;;;5007751;28;20061;-76
2022/07/12 10:38:35;;;;;;;2.55;0.55;;;29.80;76.90;;;;;;5038825;28;20061;-76
2022/07/12 10:41:18;;;;;;;1.38;0.50;;;29.70;74.30;;;;;;5039196;28;20072;-76
2022/07/12 10:46:29;;;;;;;1.95;0.40;;;29.60;74.00;;;;;;5037194;28;20456;-76
2022/07/12 10:49:24;;;;;;;0.80;0.50;;;29.60;74.20;;;;;;5008694;28;20049;-76
2022/07/12 10:52:12;;;;;;;1.08;0.43;;;29.60;72.10;;;;;;5005322;28;20058;-76
2022/07/12 10:54:54;;;;;;;1.45;1.10;;;29.50;72.80;;;;;;5004545;28;20057;-76
2022/07/12 10:57:49;;;;;;;2.25;1.67;;;29.20;71.60;;;;;;5007876;28;20056;-76
2022/07/12 11:00:15;;;;;;;1.35;0.30;;;29.00;72.90;;;;;;5010583;28;20042;-76
2022/07/12 11:02:41;;;;;;;3.15;0.50;;;28.80;73.90;;;;;;5013040;28;20133;-76
2022/07/12 11:05:08;;;;;;;1.65;0.45;;;28.80;75.10;;;;;;4997004;28;20133;-76
2022/07/12 11:07:34;;;;;;;0.85;0.30;;;28.80;73.70;;;;;;5011725;28;20441;-75
2022/07/12 11:10:00;;;;;;;0.77;0.30;;;28.80;74.80;;;;;;5027271;28;20041;-75
2022/07/12 11:12:32;;;;;;;0.77;0.30;;;28.80;74.50;;;;;;5011786;28;20141;-75
2022/07/12 11:14:59;;;;;;;1.55;0.20;;;28.70;75.40;;;;;;4996982;28;20050;-76
2022/07/12 11:17:33;;;;;;;0.70;0.30;;;29.00;73.80;;;;;;5044225;28;20167;-76
2022/07/12 11:20:06;;;;;;;0.70;0.30;;;29.30;73.40;;;;;;5009898;28;20123;-76
2022/07/12 11:22:32;;;;;;;1.15;0.43;;;29.70;71.20;;;;;;5011551;28;20096;-77
2022/07/12 11:24:59;;;;;;;1.42;0.30;;;29.90;70.60;;;;;;5011968;28;20054;-77
2022/07/12 11:27:29;;;;;;;2.53;0.30;;;30.00;69.10;;;;;;5026816;28;20042;-76
2022/07/12 11:29:59;;;;;;;0.45;0.20;;;30.10;67.30;;;;;;5012354;28;20046;-76
2022/07/12 11:32:43;;;;;;;1.58;0.22;;;30.20;68.20;;;;;;5026262;28;20069;-76
2022/07/12 11:35:23;;;;;;;0.30;0.20;;;29.90;67.50;;;;;;5028013;28;20486;-77
2022/07/12 11:37:54;;;;;;;0.68;0.20;;;29.50;69.80;;;;;;5011688;28;20363;-77
2022/07/12 11:40:24;;;;;;;1.15;0.10;;;29.30;70.50;;;;;;5011945;28;20104;-75
2022/07/12 11:42:58;;;;;;;1.10;0.30;;;29.10;67.90;;;;;;5004234;28;20050;-75
2022/07/12 11:45:28;;;;;;;0.40;0.10;;;29.10;69.10;;;;;;5010941;28;20133;-75
2022/07/12 11:47:54;;;;;;;0.73;0.20;;;29.20;67.50;;;;;;4993461;28;20056;-75
2022/07/12 11:50:20;;;;;;;0.68;0.20;;;29.40;66.80;;;;;;5008767;28;20056;-75
2022/07/12 11:52:46;;;;;;;0.77;0.20;;;29.60;66.80;;;;;;5025249;28;20058;-74
2022/07/12 11:55:12;;;;;;;0.57;0.20;;;29.80;66.30;;;;;;4994310;28;20489;-74
2022/07/12 11:57:38;;;;;;;1.83;0.13;;;30.00;65.30;;;;;;5007234;28;20070;-74
2022/07/12 12:00:20;;;;;;;2.95;2.40;;;30.20;66.70;;;;;;5011389;28;20054;-74
2022/07/12 12:02:50;;;;;;;3.40;3.10;;;30.60;64.40;;;;;;5007678;28;20442;-74
2022/07/12 12:05:16;;;;;;;0.93;0.30;;;30.80;64.00;;;;;;4992639;28;20085;-74
2022/07/12 12:07:42;;;;;;;0.80;0.22;;;31.10;61.50;;;;;;5009650;28;20088;-75
2022/07/12 12:10:15;;;;;;;0.82;0.30;;;31.30;60.50;;;;;;5026510;28;20085;-75
2022/07/12 12:12:48;;;;;;;1.23;0.40;;;31.40;59.90;;;;;;5009406;28;20053;-75
2022/07/12 12:15:16;;;;;;;0.77;0.10;;;31.60;57.30;;;;;;5011808;28;20041;-75
2022/07/12 12:17:58;;;;;;;0.63;0.20;;;31.60;59.50;;;;;;5009652;28;20136;-75
2022/07/12 12:20:26;;;;;;;0.70;0.20;;;31.60;59.00;;;;;;5012016;28;20050;-75
2022/07/12 12:23:05;;;;;;;1.50;0.20;;;31.70;59.20;;;;;;5008925;28;20046;-75
2022/07/12 12:25:32;;;;;;;0.90;0.10;;;31.80;59.00;;;;;;5014203;28;20050;-75
2022/07/12 12:28:00;;;;;;;0.65;0.20;;;31.90;60.10;;;;;;5041587;28;20060;-76
2022/07/12 12:30:27;;;;;;;0.35;0.20;;;32.00;58.60;;;;;;5011057;28;20085;-75
2022/07/12 12:32:58;;;;;;;1.45;0.20;;;32.10;56.70;;;;;;5040619;28;20137;-75
2022/07/12 12:35:30;;;;;;;0.95;0.40;;;32.40;55.90;;;;;;5010391;28;20073;-75
2022/07/12 12:37:58;;;;;;;0.88;0.30;;;32.40;55.80;;;;;;5007260;28;20057;-76
2022/07/12 12:40:26;;;;;;;2.83;0.20;;;32.50;54.70;;;;;;5009807;28;20686;-76
2022/07/12 12:42:52;;;;;;;1.50;0.10;;;32.50;54.00;;;;;;4990171;28;20182;-76
2022/07/12 12:45:24;;;;;;;0.95;0.20;;;32.40;55.40;;;;;;5041859;28;20370;-76
2022/07/12 12:48:00;;;;;;;1.38;0.10;;;32.50;53.70;;;;;;5040456;28;20088;-76
2022/07/12 12:50:36;;;;;;;1.15;0.30;;;32.50;51.90;;;;;;5008804;28;20053;-76
2022/07/12 12:53:17;;;;;;;1.15;0.10;;;32.40;54.10;;;;;;5004663;28;20049;-76
2022/07/12 12:55:45;;;;;;;1.48;0.10;;;32.40;54.20;;;;;;4992783;28;20054;-76
2022/07/12 12:58:12;;;;;;;0.82;0.17;;;32.50;53.50;;;;;;5010619;28;20119;-77